createdAt,value
2019-06-27T00:03:36.302Z,23.40
2019-06-27T00:08:31.161Z,23.40
2019-06-27T00:13:25.822Z,23.30
2019-06-27T00:18:20.433Z,23.30
2019-06-27T00:23:15.048Z,23.30
2019-06-27T00:28:09.774Z,23.20
2019-06-27T00:33:04.468Z,23.20
2019-06-27T00:37:59.096Z,23.10
2019-06-27T00:42:53.689Z,22.90
2019-06-27T00:47:48.300Z,22.90
2019-06-27T00:52:43.074Z,22.90
2019-06-27T00:57:37.824Z,22.70
2019-06-27T01:02:32.417Z,22.70
2019-06-27T01:07:27.029Z,22.60
2019-06-27T01:12:21.652Z,22.50
2019-06-27T01:17:16.243Z,22.50
2019-06-27T01:22:10.926Z,22.50
2019-06-27T01:27:05.524Z,22.50
2019-06-27T01:32:00.139Z,22.50
2019-06-27T01:36:54.816Z,22.60
2019-06-27T01:41:49.413Z,22.50
2019-06-27T01:46:44.028Z,22.50
2019-06-27T01:51:38.648Z,22.40
2019-06-27T01:56:33.251Z,22.40
2019-06-27T02:01:27.867Z,22.30
2019-06-27T02:06:22.479Z,22.10
2019-06-27T02:11:17.141Z,22.20
2019-06-27T02:16:11.748Z,22.10
2019-06-27T02:21:06.365Z,22.10
2019-06-27T02:26:00.997Z,22.00
2019-06-27T02:30:55.592Z,22.00
2019-06-27T02:35:50.201Z,22.00
2019-06-27T02:40:44.902Z,22.00
2019-06-27T02:45:39.583Z,22.00
2019-06-27T02:50:34.244Z,22.00
2019-06-27T02:55:29.599Z,21.90
2019-06-27T03:00:24.838Z,21.90
2019-06-27T03:05:20.057Z,21.80
2019-06-27T03:10:16.454Z,21.70
2019-06-27T03:15:13.191Z,21.70
2019-06-27T03:20:11.937Z,21.60
2019-06-27T03:25:07.449Z,21.60
2019-06-27T03:30:02.087Z,21.60
2019-06-27T03:34:56.681Z,21.60
2019-06-27T03:39:51.350Z,21.60
2019-06-27T03:44:45.967Z,21.50
2019-06-27T03:49:40.575Z,21.60
2019-06-27T03:54:35.169Z,21.70
2019-06-27T03:59:29.793Z,21.80
2019-06-27T04:04:24.405Z,22.10
2019-06-27T04:09:19.341Z,22.50
2019-06-27T04:14:13.961Z,23.00
2019-06-27T04:19:09.067Z,23.70
2019-06-27T04:24:03.753Z,24.50
2019-06-27T04:28:58.368Z,25.30
2019-06-27T04:33:52.959Z,26.20
2019-06-27T04:38:47.616Z,27.00
2019-06-27T04:43:42.283Z,27.90
2019-06-27T04:48:36.894Z,28.90
2019-06-27T04:53:31.504Z,29.80
2019-06-27T04:58:26.102Z,30.60
2019-06-27T05:03:20.719Z,31.00
2019-06-27T05:08:15.332Z,31.80
2019-06-27T05:13:09.939Z,32.40
2019-06-27T05:18:04.564Z,32.90
2019-06-27T05:22:59.183Z,32.80
2019-06-27T05:27:54.899Z,32.90
2019-06-27T05:32:49.495Z,32.30
2019-06-27T05:37:44.097Z,32.40
2019-06-27T05:42:38.703Z,33.50
2019-06-27T05:47:33.291Z,33.20
2019-06-27T05:52:27.932Z,33.30
2019-06-27T05:57:22.540Z,33.50
2019-06-27T06:02:17.178Z,33.70
2019-06-27T06:07:11.779Z,33.50
2019-06-27T06:12:06.387Z,32.80
2019-06-27T06:17:01.402Z,32.50
2019-06-27T06:21:56.026Z,33.00
2019-06-27T06:26:53.672Z,33.30
2019-06-27T06:31:51.482Z,32.80
2019-06-27T06:36:49.077Z,32.60
2019-06-27T06:41:43.659Z,33.10
2019-06-27T06:46:38.263Z,33.30
2019-06-27T06:51:33.480Z,33.40
2019-06-27T06:56:29.087Z,33.30
2019-06-27T07:01:24.270Z,33.40
2019-06-27T07:06:19.390Z,33.50
2019-06-27T07:11:13.976Z,33.30
2019-06-27T07:16:08.578Z,32.70
2019-06-27T07:21:03.288Z,32.20
2019-06-27T07:25:57.863Z,32.10
2019-06-27T07:30:52.608Z,32.00
2019-06-27T07:35:47.385Z,31.90
2019-06-27T07:40:42.344Z,31.80
2019-06-27T07:45:43.447Z,31.80
2019-06-27T07:50:38.327Z,31.70
2019-06-27T07:55:33.694Z,31.80
2019-06-27T08:00:28.467Z,31.70
2019-06-27T08:05:23.693Z,31.60
2019-06-27T08:10:18.933Z,31.70
2019-06-27T08:15:14.571Z,31.70
2019-06-27T08:20:09.576Z,31.90
2019-06-27T08:25:07.253Z,31.70
2019-06-27T08:30:02.082Z,31.70
2019-06-27T08:34:57.030Z,31.70
2019-06-27T08:39:51.720Z,31.90
2019-06-27T08:44:46.992Z,32.10
2019-06-27T08:49:41.947Z,32.20
2019-06-27T08:54:40.182Z,32.40
2019-06-27T08:59:34.948Z,32.20
2019-06-27T09:04:30.028Z,32.00
2019-06-27T09:09:24.832Z,32.10
2019-06-27T09:14:21.802Z,32.00
2019-06-27T09:19:17.255Z,31.90
2019-06-27T09:24:12.052Z,32.00
2019-06-27T09:29:06.869Z,32.10
2019-06-27T09:34:06.012Z,32.30
2019-06-27T09:39:00.987Z,32.60
2019-06-27T09:43:55.623Z,33.00
2019-06-27T09:48:50.396Z,32.80
2019-06-27T09:53:45.038Z,32.90
2019-06-27T09:58:39.633Z,32.90
2019-06-27T10:03:34.233Z,33.20
2019-06-27T10:08:28.830Z,33.40
2019-06-27T10:13:23.451Z,33.70
2019-06-27T10:18:18.029Z,34.00
2019-06-27T10:23:13.704Z,34.10
2019-06-27T10:28:08.579Z,34.30
2019-06-27T10:33:03.271Z,34.40
2019-06-27T10:37:58.051Z,34.60
2019-06-27T10:42:52.725Z,34.90
2019-06-27T10:47:48.067Z,35.10
2019-06-27T10:52:42.814Z,35.00
2019-06-27T10:57:37.400Z,35.20
2019-06-27T11:02:31.965Z,35.20
2019-06-27T11:07:26.564Z,35.20
2019-06-27T11:12:21.716Z,35.30
2019-06-27T11:17:16.364Z,35.40
2019-06-27T11:22:11.062Z,35.70
2019-06-27T11:27:05.719Z,35.50
2019-06-27T11:32:04.861Z,35.70
2019-06-27T11:36:59.616Z,35.80
2019-06-27T11:41:54.224Z,35.70
2019-06-27T11:46:48.970Z,35.90
2019-06-27T11:51:43.563Z,36.30
2019-06-27T11:56:38.238Z,36.60
2019-06-27T12:01:32.920Z,36.80
2019-06-27T12:06:27.555Z,36.90
2019-06-27T12:11:22.187Z,37.00
2019-06-27T12:16:16.783Z,37.00
2019-06-27T12:21:11.415Z,36.80
2019-06-27T12:26:06.666Z,36.40
2019-06-27T12:31:10.323Z,36.30
2019-06-27T12:35:58.207Z,36.40
2019-06-27T12:40:52.793Z,36.70
2019-06-27T12:45:47.404Z,37.00
2019-06-27T12:50:42.318Z,37.20
2019-06-27T12:55:37.186Z,37.30
2019-06-27T13:00:31.789Z,37.10
2019-06-27T13:05:32.354Z,37.30
2019-06-27T13:10:35.739Z,37.20
2019-06-27T13:15:29.949Z,37.20
2019-06-27T13:20:25.409Z,37.50
2019-06-27T13:25:21.046Z,37.20
2019-06-27T13:30:16.052Z,37.20
2019-06-27T13:35:11.613Z,36.70
2019-06-27T13:40:08.368Z,36.70
2019-06-27T13:45:03.354Z,36.60
2019-06-27T13:49:57.986Z,36.60
2019-06-27T13:54:52.681Z,35.90
2019-06-27T13:59:47.507Z,35.70
2019-06-27T14:04:56.736Z,35.80
2019-06-27T14:09:52.229Z,36.20
2019-06-27T14:14:36.148Z,36.30
2019-06-27T14:19:30.772Z,36.20
2019-06-27T14:24:25.368Z,36.30
2019-06-27T14:29:19.958Z,36.00
2019-06-27T14:34:14.848Z,35.90
2019-06-27T14:39:10.488Z,35.80
2019-06-27T14:44:05.164Z,35.80
2019-06-27T14:48:59.833Z,35.30
2019-06-27T14:53:54.490Z,35.00
2019-06-27T14:58:49.117Z,35.00
2019-06-27T15:03:43.769Z,35.00
2019-06-27T15:08:38.353Z,35.40
2019-06-27T15:13:33.029Z,35.20
2019-06-27T15:18:27.620Z,35.20
2019-06-27T15:23:22.289Z,34.80
2019-06-27T15:28:16.908Z,34.70
2019-06-27T15:33:11.513Z,34.80
2019-06-27T15:38:06.111Z,34.70
2019-06-27T15:43:03.727Z,34.60
2019-06-27T15:48:04.416Z,34.40
2019-06-27T15:53:05.374Z,34.80
2019-06-27T15:58:10.317Z,34.80
2019-06-27T16:03:10.277Z,34.10
2019-06-27T16:08:05.290Z,34.30
2019-06-27T16:13:02.402Z,34.40
2019-06-27T16:17:56.179Z,34.60
2019-06-27T16:22:50.786Z,34.60
2019-06-27T16:27:45.379Z,34.60
2019-06-27T16:32:39.968Z,34.60
2019-06-27T16:37:34.559Z,34.60
2019-06-27T16:42:29.166Z,34.70
2019-06-27T16:47:23.752Z,34.60
2019-06-27T16:52:18.343Z,34.40
2019-06-27T16:57:12.989Z,34.30
2019-06-27T17:02:08.381Z,34.30
2019-06-27T17:07:02.960Z,34.30
2019-06-27T17:11:57.554Z,34.30
2019-06-27T17:16:52.227Z,34.20
2019-06-27T17:21:46.824Z,34.00
2019-06-27T17:26:41.412Z,33.80
2019-06-27T17:31:36.010Z,33.70
2019-06-27T17:36:30.607Z,33.40
2019-06-27T17:41:25.216Z,33.20
2019-06-27T17:46:19.800Z,33.10
2019-06-27T17:51:14.397Z,32.90
2019-06-27T17:56:08.998Z,32.90
2019-06-27T18:01:03.652Z,32.70
2019-06-27T18:05:58.238Z,32.60
2019-06-27T18:10:52.836Z,32.50
2019-06-27T18:15:47.437Z,32.30
2019-06-27T18:20:42.017Z,32.10
2019-06-27T18:25:36.615Z,32.10
2019-06-27T18:30:31.218Z,31.90
2019-06-27T18:35:25.808Z,31.70
2019-06-27T18:40:22.315Z,31.60
2019-06-27T18:45:17.281Z,31.30
2019-06-27T18:50:12.675Z,31.20
2019-06-27T18:55:07.574Z,31.00
2019-06-27T19:00:02.319Z,30.80
2019-06-27T19:04:57.061Z,30.60
2019-06-27T19:09:51.635Z,30.40
2019-06-27T19:14:46.229Z,30.10
2019-06-27T19:19:42.455Z,30.10
2019-06-27T19:24:54.115Z,30.00
2019-06-27T19:29:48.699Z,29.90
2019-06-27T19:34:43.383Z,29.60
2019-06-27T19:39:38.230Z,29.50
2019-06-27T19:44:32.827Z,29.50
2019-06-27T19:49:27.401Z,29.40
2019-06-27T19:54:22.096Z,29.40
2019-06-27T19:59:17.035Z,29.20
2019-06-27T20:04:11.654Z,29.10
2019-06-27T20:09:06.786Z,29.00
2019-06-27T20:14:02.153Z,29.00
2019-06-27T20:18:56.811Z,28.80
2019-06-27T20:23:51.406Z,28.80
2019-06-27T20:28:46.066Z,28.70
2019-06-27T20:33:40.666Z,28.60
2019-06-27T20:38:35.597Z,28.40
2019-06-27T20:43:30.368Z,28.20
2019-06-27T20:48:25.366Z,28.10
2019-06-27T20:53:19.959Z,27.90
2019-06-27T20:58:14.550Z,27.80
2019-06-27T21:03:09.156Z,27.80
2019-06-27T21:08:03.739Z,27.80
2019-06-27T21:12:58.403Z,27.80
2019-06-27T21:17:53.000Z,27.70
2019-06-27T21:22:47.622Z,27.80
2019-06-27T21:27:42.260Z,27.90
2019-06-27T21:32:36.870Z,27.80
2019-06-27T21:37:31.465Z,27.80
2019-06-27T21:42:26.042Z,27.70
2019-06-27T21:47:20.655Z,27.50
2019-06-27T21:52:15.248Z,27.50
2019-06-27T21:57:09.853Z,27.60
2019-06-27T22:02:04.901Z,27.50
2019-06-27T22:06:59.506Z,27.40
2019-06-27T22:11:54.168Z,27.40
2019-06-27T22:16:48.826Z,27.20
2019-06-27T22:21:43.414Z,27.10
2019-06-27T22:26:38.011Z,27.00
2019-06-27T22:31:32.580Z,26.90
2019-06-27T22:36:27.179Z,26.80
2019-06-27T22:41:39.819Z,26.70
2019-06-27T22:46:52.471Z,26.70
2019-06-27T22:51:58.115Z,26.50
2019-06-27T22:56:52.714Z,26.50
2019-06-27T23:01:47.359Z,26.60
2019-06-27T23:06:41.949Z,26.50
2019-06-27T23:11:36.524Z,26.40
2019-06-27T23:16:31.187Z,26.30
2019-06-27T23:21:25.756Z,26.10
2019-06-27T23:26:20.355Z,26.00
2019-06-27T23:31:15.031Z,25.90
2019-06-27T23:36:09.627Z,25.80
2019-06-27T23:41:04.214Z,25.70
2019-06-27T23:45:58.798Z,25.70
2019-06-27T23:50:53.384Z,25.80
2019-06-27T23:55:47.964Z,25.80
